createdAt,value
2018-03-16T00:01:15.345Z,77.71
2018-03-16T00:03:46.220Z,77.91
2018-03-16T00:06:17.848Z,78.19
2018-03-16T00:08:48.836Z,77.91
2018-03-16T00:11:20.356Z,77.75
2018-03-16T00:13:51.094Z,77.79
2018-03-16T00:16:22.097Z,78.19
2018-03-16T00:18:53.283Z,78.14
2018-03-16T00:21:24.613Z,78.21
2018-03-16T00:23:56.348Z,78.28
2018-03-16T00:26:27.100Z,78.15
2018-03-16T00:28:59.361Z,78.49
2018-03-16T00:31:28.636Z,78.18
2018-03-16T00:33:57.809Z,78.47
2018-03-16T00:36:28.431Z,78.27
2018-03-16T00:38:59.073Z,78.70
2018-03-16T00:41:29.896Z,78.88
2018-03-16T00:44:00.749Z,78.39
2018-03-16T00:46:31.392Z,78.25
2018-03-16T00:49:02.064Z,78.26
2018-03-16T00:51:32.829Z,78.74
2018-03-16T00:54:03.807Z,78.87
2018-03-16T00:56:35.572Z,78.89
2018-03-16T00:59:05.049Z,78.42
2018-03-16T01:01:35.883Z,78.54
2018-03-16T01:04:11.708Z,78.97
2018-03-16T01:06:43.425Z,78.58
2018-03-16T01:09:12.604Z,78.64
2018-03-16T01:11:41.798Z,78.79
2018-03-16T01:14:11.064Z,79.04
2018-03-16T01:16:41.636Z,78.75
2018-03-16T01:19:12.615Z,78.95
2018-03-16T01:21:44.041Z,79.36
2018-03-16T01:24:14.785Z,79.36
2018-03-16T01:26:46.460Z,79.16
2018-03-16T01:29:16.908Z,79.00
2018-03-16T01:31:47.685Z,79.31
2018-03-16T01:34:18.372Z,79.25
2018-03-16T01:36:49.848Z,79.31
2018-03-16T01:39:19.869Z,79.71
2018-03-16T01:41:50.796Z,79.42
2018-03-16T01:44:22.252Z,79.14
2018-03-16T01:46:53.073Z,79.76
2018-03-16T01:49:23.920Z,79.74
2018-03-16T01:51:54.432Z,79.72
2018-03-16T01:54:26.207Z,79.53
2018-03-16T01:56:56.961Z,79.52
2018-03-16T01:59:27.652Z,79.86
2018-03-16T02:01:58.224Z,80.00
2018-03-16T02:04:27.295Z,79.94
2018-03-16T02:06:58.005Z,80.00
2018-03-16T02:09:28.757Z,80.12
2018-03-16T02:12:00.143Z,80.11
2018-03-16T02:14:31.233Z,79.81
2018-03-16T02:17:01.721Z,80.11
2018-03-16T02:19:32.727Z,79.91
2018-03-16T02:22:04.100Z,79.96
2018-03-16T02:24:35.169Z,79.94
2018-03-16T02:27:06.124Z,80.23
2018-03-16T02:29:36.608Z,80.04
2018-03-16T02:32:09.392Z,80.06
2018-03-16T02:34:39.220Z,80.15
2018-03-16T02:37:09.722Z,80.10
2018-03-16T02:39:39.459Z,80.16
2018-03-16T02:42:10.026Z,80.55
2018-03-16T02:44:40.635Z,80.53
2018-03-16T02:47:11.244Z,80.10
2018-03-16T02:49:41.820Z,80.01
2018-03-16T02:52:12.480Z,80.29
2018-03-16T02:54:44.035Z,80.37
2018-03-16T02:57:15.209Z,80.33
2018-03-16T02:59:45.993Z,80.35
2018-03-16T03:02:16.551Z,80.52
2018-03-16T03:04:49.393Z,80.93
2018-03-16T03:07:20.230Z,80.44
2018-03-16T03:09:56.568Z,80.24
2018-03-16T03:12:25.763Z,80.42
2018-03-16T03:14:57.580Z,80.28
2018-03-16T03:17:27.095Z,80.08
2018-03-16T03:19:56.268Z,80.50
2018-03-16T03:22:26.755Z,80.29
2018-03-16T03:24:57.353Z,80.15
2018-03-16T03:27:28.060Z,80.22
2018-03-16T03:29:58.847Z,80.63
2018-03-16T03:32:30.580Z,80.66
2018-03-16T03:35:03.572Z,80.54
2018-03-16T03:37:34.424Z,80.66
2018-03-16T03:40:03.773Z,80.85
2018-03-16T03:42:36.591Z,80.69
2018-03-16T03:45:05.780Z,80.61
2018-03-16T03:47:36.712Z,80.67
2018-03-16T03:50:06.210Z,80.76
2018-03-16T03:52:37.243Z,80.61
2018-03-16T03:55:08.048Z,80.33
2018-03-16T03:57:39.865Z,80.74
2018-03-16T04:00:09.076Z,81.18
2018-03-16T04:02:40.851Z,80.64
2018-03-16T04:05:11.103Z,80.64
2018-03-16T04:07:41.734Z,80.81
2018-03-16T04:10:16.577Z,81.01
2018-03-16T04:12:45.533Z,80.79
2018-03-16T04:15:15.451Z,80.81
2018-03-16T04:17:47.815Z,80.87
2018-03-16T04:20:17.397Z,80.72
2018-03-16T04:22:51.296Z,80.73
2018-03-16T04:25:20.767Z,80.40
2018-03-16T04:27:50.339Z,80.64
2018-03-16T04:30:21.251Z,80.38
2018-03-16T04:32:52.746Z,80.73
2018-03-16T04:35:24.313Z,80.65
2018-03-16T04:37:54.899Z,81.03
2018-03-16T04:40:25.517Z,80.60
2018-03-16T04:42:56.223Z,80.68
2018-03-16T04:45:27.061Z,80.41
2018-03-16T04:48:00.819Z,80.55
2018-03-16T04:50:31.253Z,80.75
2018-03-16T04:53:01.604Z,80.84
2018-03-16T04:55:32.300Z,81.00
2018-03-16T04:58:02.986Z,81.47
2018-03-16T05:00:34.802Z,81.35
2018-03-16T05:03:04.696Z,82.10
2018-03-16T05:05:36.811Z,81.61
2018-03-16T05:08:06.414Z,81.63
2018-03-16T05:10:37.782Z,81.41
2018-03-16T05:13:07.454Z,81.18
2018-03-16T05:15:39.115Z,81.40
2018-03-16T05:18:10.032Z,81.21
2018-03-16T05:20:40.992Z,81.42
2018-03-16T05:23:10.176Z,81.82
2018-03-16T05:25:40.871Z,81.33
2018-03-16T05:28:11.240Z,81.50
2018-03-16T05:30:42.362Z,81.88
2018-03-16T05:33:13.293Z,82.07
2018-03-16T05:35:44.332Z,81.78
2018-03-16T05:38:15.275Z,81.62
2018-03-16T05:40:46.983Z,81.71
2018-03-16T05:43:17.568Z,82.06
2018-03-16T05:45:48.321Z,82.11
2018-03-16T05:48:19.979Z,82.04
2018-03-16T05:50:50.848Z,82.21
2018-03-16T05:53:21.828Z,82.25
2018-03-16T05:55:53.396Z,82.29
2018-03-16T05:58:25.151Z,82.50
2018-03-16T06:00:55.549Z,82.60
2018-03-16T06:03:26.448Z,82.42
2018-03-16T06:05:56.440Z,82.55
2018-03-16T06:08:27.071Z,82.56
2018-03-16T06:10:57.894Z,82.19
2018-03-16T06:13:28.552Z,82.52
2018-03-16T06:15:59.208Z,82.68
2018-03-16T06:18:29.934Z,82.61
2018-03-16T06:21:00.845Z,82.13
2018-03-16T06:23:32.450Z,81.35
2018-03-16T06:26:03.420Z,81.80
2018-03-16T06:28:37.309Z,82.10
2018-03-16T06:31:16.957Z,81.34
2018-03-16T06:33:46.162Z,81.91
2018-03-16T06:36:15.368Z,82.35
2018-03-16T06:38:44.829Z,82.08
2018-03-16T06:41:14.022Z,82.50
2018-03-16T06:43:43.265Z,82.12
2018-03-16T06:46:12.505Z,82.74
2018-03-16T06:48:41.716Z,82.82
2018-03-16T06:51:12.780Z,82.64
2018-03-16T06:53:42.411Z,83.17
2018-03-16T06:56:13.158Z,83.22
2018-03-16T06:58:45.637Z,83.32
2018-03-16T07:01:15.324Z,83.27
2018-03-16T07:03:50.357Z,83.51
2018-03-16T07:06:19.641Z,83.21
2018-03-16T07:08:48.843Z,84.05
2018-03-16T07:11:18.434Z,84.47
2018-03-16T07:13:49.297Z,83.94
2018-03-16T07:16:20.063Z,83.76
2018-03-16T07:18:51.792Z,84.25
2018-03-16T07:21:22.358Z,84.15
2018-03-16T07:23:53.105Z,83.81
2018-03-16T07:26:23.420Z,84.06
2018-03-16T07:28:54.228Z,83.29
2018-03-16T07:31:25.966Z,83.23
2018-03-16T07:33:56.807Z,83.67
2018-03-16T07:36:27.285Z,83.69
2018-03-16T07:38:58.405Z,83.46
2018-03-16T07:41:29.121Z,83.64
2018-03-16T07:44:03.848Z,84.09
2018-03-16T07:46:33.212Z,84.11
2018-03-16T07:49:02.405Z,84.19
2018-03-16T07:51:33.149Z,84.28
2018-03-16T07:54:03.816Z,84.09
2018-03-16T07:56:34.890Z,83.88
2018-03-16T07:59:05.946Z,83.84
2018-03-16T08:01:36.402Z,84.58
2018-03-16T08:04:07.124Z,84.29
2018-03-16T08:06:37.828Z,84.53
2018-03-16T08:09:09.524Z,84.34
2018-03-16T08:11:40.280Z,84.26
2018-03-16T08:14:10.741Z,84.15
2018-03-16T08:16:41.396Z,84.50
2018-03-16T08:19:12.048Z,84.86
2018-03-16T08:21:42.872Z,84.54
2018-03-16T08:24:13.745Z,84.26
2018-03-16T08:26:45.162Z,84.47
2018-03-16T08:29:15.904Z,84.33
2018-03-16T08:31:47.526Z,84.78
2018-03-16T08:34:18.208Z,84.66
2018-03-16T08:36:48.928Z,84.53
2018-03-16T08:39:19.377Z,84.71
2018-03-16T08:41:50.113Z,84.65
2018-03-16T08:44:20.866Z,84.63
2018-03-16T08:46:51.867Z,84.43
2018-03-16T08:49:22.846Z,84.36
2018-03-16T08:51:54.444Z,84.51
2018-03-16T08:54:25.108Z,84.62
2018-03-16T08:56:55.741Z,84.56
2018-03-16T08:59:26.500Z,84.58
2018-03-16T09:01:57.254Z,84.21
2018-03-16T09:04:27.928Z,84.57
2018-03-16T09:06:58.925Z,84.70
2018-03-16T09:09:29.795Z,84.50
2018-03-16T09:12:01.227Z,84.81
2018-03-16T09:14:31.800Z,84.60
2018-03-16T09:17:02.449Z,84.21
2018-03-16T09:19:33.110Z,84.60
2018-03-16T09:22:03.893Z,85.08
2018-03-16T09:24:34.809Z,84.85
2018-03-16T09:27:06.233Z,84.72
2018-03-16T09:29:36.970Z,84.75
2018-03-16T09:32:08.439Z,84.94
2018-03-16T09:34:38.347Z,84.83
2018-03-16T09:37:09.065Z,84.66
2018-03-16T09:39:39.878Z,84.63
2018-03-16T09:42:10.850Z,84.27
2018-03-16T09:44:41.822Z,84.15
2018-03-16T09:47:12.857Z,84.67
2018-03-16T09:49:43.821Z,84.75
2018-03-16T09:52:14.851Z,84.64
2018-03-16T09:54:56.761Z,84.83
2018-03-16T09:57:26.289Z,84.51
2018-03-16T09:59:55.711Z,85.21
2018-03-16T10:02:25.105Z,85.15
2018-03-16T10:04:54.378Z,84.50
2018-03-16T10:07:23.669Z,84.75
2018-03-16T10:09:53.168Z,84.87
2018-03-16T10:12:22.447Z,85.11
2018-03-16T10:14:52.406Z,84.76
2018-03-16T10:17:23.109Z,84.70
2018-03-16T10:19:53.793Z,84.22
2018-03-16T10:22:25.250Z,84.82
2018-03-16T10:24:55.956Z,84.30
2018-03-16T10:27:26.917Z,84.36
2018-03-16T10:29:57.773Z,84.26
2018-03-16T10:32:28.861Z,84.26
2018-03-16T10:34:59.851Z,84.35
2018-03-16T10:37:31.006Z,84.44
2018-03-16T10:40:01.858Z,84.06
2018-03-16T10:42:32.862Z,83.98
2018-03-16T10:45:03.825Z,83.92
2018-03-16T10:47:34.412Z,83.87
2018-03-16T10:50:04.557Z,84.13
2018-03-16T10:52:36.182Z,84.07
2018-03-16T10:55:06.927Z,83.72
2018-03-16T10:57:37.437Z,84.21
2018-03-16T11:00:09.191Z,83.83
2018-03-16T11:02:45.204Z,84.44
2018-03-16T11:05:19.232Z,84.33
2018-03-16T11:07:58.980Z,84.13
2018-03-16T11:10:28.280Z,84.12
2018-03-16T11:12:57.678Z,84.06
2018-03-16T11:15:26.956Z,83.89
2018-03-16T11:17:56.190Z,84.11
2018-03-16T11:20:25.546Z,84.30
2018-03-16T11:22:54.875Z,84.30
2018-03-16T11:25:24.170Z,84.31
2018-03-16T11:27:53.475Z,84.37
2018-03-16T11:30:22.721Z,83.81
2018-03-16T11:32:52.417Z,83.69
2018-03-16T11:35:23.198Z,84.56
2018-03-16T11:37:53.886Z,84.26
2018-03-16T11:40:24.890Z,83.99
2018-03-16T11:42:55.812Z,84.00
2018-03-16T11:45:27.161Z,83.45
2018-03-16T11:47:57.582Z,83.77
2018-03-16T11:50:28.252Z,83.66
2018-03-16T11:52:58.902Z,83.75
2018-03-16T11:55:30.496Z,83.95
2018-03-16T11:58:01.141Z,83.77
2018-03-16T12:00:32.074Z,83.81
2018-03-16T12:03:02.841Z,83.87
2018-03-16T12:05:34.572Z,83.46
2018-03-16T12:08:05.106Z,83.64
2018-03-16T12:10:35.871Z,83.37
2018-03-16T12:13:06.784Z,83.22
2018-03-16T12:15:37.352Z,83.07
2018-03-16T12:18:08.880Z,83.20
2018-03-16T12:20:39.505Z,83.51
2018-03-16T12:23:10.256Z,83.22
2018-03-16T12:25:40.983Z,83.32
2018-03-16T12:28:12.964Z,83.51
2018-03-16T12:30:43.481Z,83.82
2018-03-16T12:33:14.388Z,83.65
2018-03-16T12:35:45.320Z,83.36
2018-03-16T12:38:16.022Z,83.71
2018-03-16T12:40:46.942Z,83.22
2018-03-16T12:43:18.425Z,82.96
2018-03-16T12:45:49.235Z,82.66
2018-03-16T12:48:20.017Z,82.97
2018-03-16T12:50:49.847Z,82.93
2018-03-16T12:53:20.423Z,82.92
2018-03-16T12:55:51.492Z,82.83
2018-03-16T12:58:22.382Z,83.16
2018-03-16T13:00:53.432Z,82.85
2018-03-16T13:03:24.395Z,83.26
2018-03-16T13:05:55.425Z,83.06
2018-03-16T13:08:26.360Z,82.82
2018-03-16T13:10:57.376Z,82.79
2018-03-16T13:13:28.448Z,82.78
2018-03-16T13:15:59.442Z,83.15
2018-03-16T13:18:30.432Z,83.50
2018-03-16T13:21:01.427Z,83.41
2018-03-16T13:23:34.206Z,82.95
2018-03-16T13:26:04.180Z,82.67
2018-03-16T13:28:34.976Z,82.90
2018-03-16T13:31:05.858Z,82.98
2018-03-16T13:33:36.864Z,83.00
2018-03-16T13:36:07.440Z,83.28
2018-03-16T13:38:38.097Z,83.51
2018-03-16T13:41:08.902Z,83.08
2018-03-16T13:43:39.792Z,82.85
2018-03-16T13:46:10.500Z,83.11
2018-03-16T13:48:42.391Z,82.88
2018-03-16T13:51:13.112Z,83.04
2018-03-16T13:53:43.811Z,82.33
2018-03-16T13:56:14.785Z,82.73
2018-03-16T13:58:45.737Z,82.35
2018-03-16T14:01:16.836Z,82.94
2018-03-16T14:03:47.825Z,82.94
2018-03-16T14:06:18.868Z,82.65
2018-03-16T14:08:49.763Z,82.80
2018-03-16T14:11:20.852Z,82.72
2018-03-16T14:13:51.753Z,82.67
2018-03-16T14:16:22.348Z,83.04
2018-03-16T14:18:53.089Z,82.97
2018-03-16T14:21:23.840Z,82.55
2018-03-16T14:23:56.631Z,82.51
2018-03-16T14:26:26.045Z,82.44
2018-03-16T14:28:56.546Z,82.36
2018-03-16T14:31:27.315Z,82.08
2018-03-16T14:33:58.051Z,81.23
2018-03-16T14:36:29.112Z,81.61
2018-03-16T14:38:59.903Z,81.33
2018-03-16T14:41:30.980Z,81.38
2018-03-16T14:44:02.027Z,81.91
2018-03-16T14:46:32.883Z,85.55
2018-03-16T14:49:03.774Z,81.23
2018-03-16T14:51:34.942Z,80.60
2018-03-16T14:54:05.786Z,80.25
2018-03-16T14:56:36.843Z,81.08
2018-03-16T14:59:09.732Z,80.45
2018-03-16T15:01:39.489Z,81.13
2018-03-16T15:04:10.203Z,81.10
2018-03-16T15:06:41.175Z,81.95
2018-03-16T15:09:11.912Z,82.19
2018-03-16T15:11:42.868Z,82.01
2018-03-16T15:14:13.908Z,82.18
2018-03-16T15:16:44.854Z,82.31
2018-03-16T15:19:15.530Z,82.33
2018-03-16T15:21:46.247Z,82.23
2018-03-16T15:24:17.118Z,81.68
2018-03-16T15:26:47.882Z,81.85
2018-03-16T15:29:18.932Z,81.73
2018-03-16T15:31:49.743Z,81.69
2018-03-16T15:34:20.423Z,81.86
2018-03-16T15:36:51.768Z,82.11
2018-03-16T15:39:22.344Z,82.02
2018-03-16T15:41:53.114Z,82.24
2018-03-16T15:44:23.984Z,81.51
2018-03-16T15:46:54.871Z,81.72
2018-03-16T15:49:25.451Z,81.80
2018-03-16T15:51:56.184Z,82.00
2018-03-16T15:54:26.952Z,81.87
2018-03-16T15:57:03.346Z,81.51
2018-03-16T15:59:32.575Z,81.89
2018-03-16T16:02:01.879Z,82.04
2018-03-16T16:04:31.117Z,81.85
2018-03-16T16:07:01.637Z,82.03
2018-03-16T16:09:32.304Z,81.93
2018-03-16T16:12:03.178Z,89.69
2018-03-16T16:14:34.905Z,91.67
2018-03-16T16:17:04.778Z,80.85
2018-03-16T16:19:35.328Z,77.79
2018-03-16T16:22:06.042Z,77.54
2018-03-16T16:24:36.862Z,79.10
2018-03-16T16:27:07.917Z,79.53
2018-03-16T16:29:38.618Z,79.57
2018-03-16T16:32:09.340Z,79.85
2018-03-16T16:34:41.992Z,79.74
2018-03-16T16:37:12.944Z,79.88
2018-03-16T16:39:43.582Z,79.86
2018-03-16T16:42:14.378Z,80.33
2018-03-16T16:44:45.031Z,80.13
2018-03-16T16:47:15.491Z,80.39
2018-03-16T16:49:46.169Z,80.50
2018-03-16T16:52:16.864Z,80.54
2018-03-16T16:54:47.799Z,80.22
2018-03-16T16:57:19.035Z,80.87
2018-03-16T16:59:49.797Z,80.98
2018-03-16T17:02:20.647Z,81.20
2018-03-16T17:04:51.301Z,80.82
2018-03-16T17:07:22.019Z,81.05
2018-03-16T17:09:50.956Z,81.55
2018-03-16T17:12:21.751Z,80.99
2018-03-16T17:14:51.913Z,81.18
2018-03-16T17:17:22.234Z,80.77
2018-03-16T17:19:52.375Z,81.78
2018-03-16T17:22:23.008Z,81.96
2018-03-16T17:24:54.461Z,82.10
2018-03-16T17:27:25.117Z,81.68
2018-03-16T17:29:55.901Z,81.12
2018-03-16T17:32:26.756Z,81.59
2018-03-16T17:34:57.740Z,81.76
2018-03-16T17:37:28.727Z,82.61
2018-03-16T17:39:59.735Z,82.00
2018-03-16T17:42:31.510Z,81.15
2018-03-16T17:45:02.397Z,81.09
2018-03-16T17:47:33.422Z,81.48
2018-03-16T17:50:04.824Z,81.66
2018-03-16T17:52:36.012Z,82.14
2018-03-16T17:55:06.857Z,82.26
2018-03-16T17:57:37.864Z,81.98
2018-03-16T18:00:08.748Z,81.67
2018-03-16T18:02:40.427Z,81.68
2018-03-16T18:05:11.115Z,81.43
2018-03-16T18:07:42.004Z,81.38
2018-03-16T18:10:12.791Z,81.10
2018-03-16T18:12:44.252Z,80.65
2018-03-16T18:15:14.985Z,81.18
2018-03-16T18:17:45.617Z,81.18
2018-03-16T18:20:16.822Z,80.85
2018-03-16T18:22:47.890Z,80.66
2018-03-16T18:25:18.993Z,80.63
2018-03-16T18:27:49.976Z,80.54
2018-03-16T18:30:20.920Z,80.33
2018-03-16T18:32:51.963Z,80.79
2018-03-16T18:35:22.956Z,80.70
2018-03-16T18:37:53.906Z,81.44
2018-03-16T18:40:24.894Z,81.08
2018-03-16T18:42:55.975Z,80.95
2018-03-16T18:45:26.828Z,80.68
2018-03-16T18:47:58.264Z,80.43
2018-03-16T18:50:28.952Z,80.97
2018-03-16T18:52:59.929Z,80.46
2018-03-16T18:55:30.800Z,80.39
2018-03-16T18:58:02.255Z,81.13
2018-03-16T19:00:32.922Z,80.72
2018-03-16T19:03:03.940Z,80.15
2018-03-16T19:05:34.271Z,80.32
2018-03-16T19:08:04.513Z,80.07
2018-03-16T19:10:34.686Z,79.90
2018-03-16T19:13:05.420Z,80.26
2018-03-16T19:15:36.984Z,80.68
2018-03-16T19:18:07.641Z,80.96
2018-03-16T19:20:39.299Z,81.18
2018-03-16T19:23:11.128Z,80.64
2018-03-16T19:25:41.959Z,80.84
2018-03-16T19:28:12.539Z,80.44
2018-03-16T19:30:43.712Z,80.34
2018-03-16T19:33:14.622Z,79.88
2018-03-16T19:35:43.997Z,82.33
2018-03-16T19:38:14.902Z,91.98
2018-03-16T19:40:45.994Z,91.78
2018-03-16T19:43:16.881Z,85.42
2018-03-16T19:45:48.725Z,73.03
2018-03-16T19:48:19.831Z,71.23
2018-03-16T19:50:49.913Z,72.21
2018-03-16T19:53:20.443Z,74.46
2018-03-16T19:55:50.829Z,75.17
2018-03-16T19:58:21.405Z,75.97
2018-03-16T20:00:52.384Z,77.16
2018-03-16T20:03:24.596Z,77.24
2018-03-16T20:05:54.376Z,77.64
2018-03-16T20:08:24.606Z,78.32
2018-03-16T20:10:55.269Z,78.27
2018-03-16T20:13:27.117Z,78.25
2018-03-16T20:15:57.725Z,78.13
2018-03-16T20:18:29.193Z,78.55
2018-03-16T20:20:58.762Z,78.14
2018-03-16T20:23:29.549Z,78.28
2018-03-16T20:26:01.785Z,78.79
2018-03-16T20:28:32.585Z,78.50
2018-03-16T20:31:02.731Z,79.00
2018-03-16T20:33:33.541Z,78.46
2018-03-16T20:36:04.248Z,78.62
2018-03-16T20:38:35.345Z,77.85
2018-03-16T20:41:07.805Z,77.89
2018-03-16T20:43:37.432Z,77.87
2018-03-16T20:46:08.485Z,78.27
2018-03-16T20:48:39.222Z,78.47
2018-03-16T20:51:09.111Z,78.85
2018-03-16T20:53:40.056Z,78.85
2018-03-16T20:56:11.800Z,78.82
2018-03-16T20:58:41.793Z,79.01
2018-03-16T21:01:11.462Z,78.67
2018-03-16T21:03:42.208Z,78.59
2018-03-16T21:06:12.911Z,78.42
2018-03-16T21:08:43.943Z,78.57
2018-03-16T21:11:14.448Z,78.60
2018-03-16T21:13:45.206Z,78.33
2018-03-16T21:16:16.003Z,78.19
2018-03-16T21:18:47.500Z,77.69
2018-03-16T21:21:18.469Z,77.66
2018-03-16T21:23:49.234Z,77.64
2018-03-16T21:26:20.024Z,77.75
2018-03-16T21:28:50.546Z,77.05
2018-03-16T21:31:21.069Z,77.24
2018-03-16T21:33:51.492Z,77.25
2018-03-16T21:36:22.173Z,76.98
2018-03-16T21:38:53.074Z,77.34
2018-03-16T21:41:24.056Z,76.87
2018-03-16T21:43:54.863Z,76.72
2018-03-16T21:46:26.740Z,76.71
2018-03-16T21:48:57.396Z,79.62
2018-03-16T21:51:28.056Z,76.70
2018-03-16T21:53:59.079Z,76.86
2018-03-16T21:56:29.428Z,76.69
2018-03-16T21:59:00.204Z,76.74
2018-03-16T22:01:30.896Z,76.41
2018-03-16T22:04:01.895Z,76.14
2018-03-16T22:06:32.853Z,76.12
2018-03-16T22:09:03.790Z,76.30
2018-03-16T22:11:34.883Z,76.62
2018-03-16T22:14:05.852Z,76.05
2018-03-16T22:16:36.851Z,76.75
2018-03-16T22:19:07.845Z,76.26
2018-03-16T22:21:38.835Z,76.29
2018-03-16T22:24:10.211Z,76.09
2018-03-16T22:26:40.877Z,76.30
2018-03-16T22:29:11.806Z,77.19
2018-03-16T22:31:42.499Z,76.73
2018-03-16T22:34:13.252Z,76.80
2018-03-16T22:36:43.993Z,76.94
2018-03-16T22:39:14.910Z,77.60
2018-03-16T22:41:45.872Z,76.59
2018-03-16T22:44:16.856Z,77.33
2018-03-16T22:46:47.819Z,77.65
2018-03-16T22:49:19.049Z,77.79
2018-03-16T22:51:49.808Z,77.48
2018-03-16T22:54:20.814Z,76.88
2018-03-16T22:56:51.355Z,76.61
2018-03-16T22:59:22.062Z,76.91
2018-03-16T23:01:52.821Z,77.64
2018-03-16T23:04:23.792Z,77.72
2018-03-16T23:06:55.140Z,77.68
2018-03-16T23:09:25.936Z,77.33
2018-03-16T23:11:56.699Z,77.44
2018-03-16T23:14:28.208Z,77.55
2018-03-16T23:16:59.122Z,77.23
2018-03-16T23:19:29.731Z,77.23
2018-03-16T23:22:00.810Z,76.99
2018-03-16T23:24:32.203Z,76.88
2018-03-16T23:27:02.843Z,77.24
2018-03-16T23:29:34.036Z,78.04
2018-03-16T23:32:04.686Z,78.00
2018-03-16T23:34:35.351Z,78.05
2018-03-16T23:37:06.049Z,78.07
2018-03-16T23:39:36.773Z,77.67
2018-03-16T23:42:07.815Z,77.68
2018-03-16T23:44:39.448Z,77.29
2018-03-16T23:47:10.113Z,77.15
2018-03-16T23:49:40.499Z,77.15
2018-03-16T23:52:11.111Z,77.05
2018-03-16T23:54:41.919Z,77.38
2018-03-16T23:57:12.812Z,77.11
2018-03-16T23:59:43.918Z,76.92
